Centenario do Sul, Brazil
Current Conditions -  °F | °C
As of 11:00 AM on Friday 24 Oct 2014 (Local Time) from SBLO Reporting Station
Clear Clear  
Wind Chill: 81°   Ceiling: Unl
Heat Index: 82°   Visibility: 6mi
Dew Point: 64°   Wind: 9mph
Humidity: 58%   Direction: 30°NNE
Pressure: 30.06"   Gusts: NA
Location:  22.82°S, 51.6°W
Report Text: SBLO 241300Z 03008KT CAVOK 27/18 Q1018
Loading
Personal Weather Stations






























Interactive Weather Map
Tropical Storm Tracking
New forecast layout! Learn more

10-Day Weather Forecast

Advertisements
Track Severe Weather on mobile